Time;durP1;ratioP1;P1;durP2;ratioP2;P2;SDS_P1;SDS_P2;PMS_P1;PMS_P2;Temp;Humidity;BMP_temperature;BMP_pressure;BME280_temperature;BME280_humidity;BME280_pressure;Samples;Min_cycle;Max_cycle;Signal;HPM_P1;HPM_P2
2022/07/14 00:01:31;;;;;;;11.90;2.67;;;;;;;16.05;85.72;102016.25;4876722;29;20063;-68
2022/07/14 00:03:56;;;;;;;10.68;3.50;;;;;;;16.04;84.86;102018.13;4893885;29;20044;-68
2022/07/14 00:06:22;;;;;;;9.65;3.47;;;;;;;15.98;85.55;102008.16;4894102;29;20033;-68
2022/07/14 00:08:47;;;;;;;8.23;2.47;;;;;;;15.98;86.11;102009.00;4893615;29;20060;-68
2022/07/14 00:11:13;;;;;;;9.88;3.00;;;;;;;15.96;86.15;102012.94;4876421;29;20107;-68
2022/07/14 00:13:38;;;;;;;10.85;3.75;;;;;;;16.02;86.50;102009.41;4897486;29;20124;-68
2022/07/14 00:16:04;;;;;;;8.07;2.95;;;;;;;15.99;87.01;102001.75;4898162;29;20391;-71
2022/07/14 00:18:30;;;;;;;5.18;3.25;;;;;;;15.89;86.89;102012.91;4898054;29;20036;-71
2022/07/14 00:20:55;;;;;;;12.70;4.80;;;;;;;15.83;87.26;102002.97;4897885;29;20044;-72
2022/07/14 00:23:22;;;;;;;9.15;3.58;;;;;;;15.76;86.93;101999.44;4897982;29;20124;-72
2022/07/14 00:25:47;;;;;;;7.85;2.80;;;;;;;15.76;87.15;102004.81;4897933;29;20064;-72
2022/07/14 00:28:13;;;;;;;6.10;2.28;;;;;;;15.66;87.25;101980.13;4897725;29;20127;-71
2022/07/14 00:30:38;;;;;;;10.40;4.15;;;;;;;15.70;87.81;102002.94;4897710;29;20033;-71
2022/07/14 00:33:03;;;;;;;12.05;3.65;;;;;;;15.57;88.25;101987.56;4897976;29;20084;-71
2022/07/14 00:35:29;;;;;;;11.30;3.20;;;;;;;15.52;89.19;101980.09;4881036;29;20111;-72
2022/07/14 00:37:54;;;;;;;7.72;2.60;;;;;;;15.49;89.45;101979.66;4897683;29;20063;-72
2022/07/14 00:40:20;;;;;;;14.95;3.53;;;;;;;15.46;89.50;101980.91;4897444;29;20024;-71
2022/07/14 00:42:48;;;;;;;12.20;3.85;;;;;;;15.52;89.52;101973.88;4897597;29;20127;-71
2022/07/14 00:45:16;;;;;;;16.52;4.18;;;;;;;15.64;89.33;101988.41;4897347;29;20093;-71
2022/07/14 00:47:42;;;;;;;10.00;3.60;;;;;;;15.74;89.28;101988.84;4897460;29;20488;-71
2022/07/14 00:50:10;;;;;;;13.18;3.80;;;;;;;15.77;88.80;101996.53;4897487;29;20036;-71
2022/07/14 00:52:35;;;;;;;10.77;3.03;;;;;;;15.76;88.72;101991.34;4897411;29;20386;-71
2022/07/14 00:55:02;;;;;;;11.43;4.00;;;;;;;15.71;88.56;101988.44;4898639;29;20039;-68
2022/07/14 00:57:27;;;;;;;9.30;2.90;;;;;;;15.69;88.44;101996.72;4897349;29;20477;-68
2022/07/14 00:59:53;;;;;;;7.40;3.20;;;;;;;15.61;88.68;101988.78;4897277;29;20051;-68
2022/07/14 01:02:20;;;;;;;6.72;3.15;;;;;;;15.64;88.89;101991.09;4896400;29;20151;-68
2022/07/14 01:04:47;;;;;;;8.88;2.92;;;;;;;15.61;89.17;101986.09;4896378;29;20053;-68
2022/07/14 01:07:14;;;;;;;14.73;3.97;;;;;;;15.61;89.35;101991.47;4897159;29;20025;-68
2022/07/14 01:09:40;;;;;;;10.35;3.47;;;;;;;15.57;89.36;101992.94;4896904;29;20032;-68
2022/07/14 01:12:07;;;;;;;8.77;4.07;;;;;;;15.63;88.94;102002.88;4896301;29;20079;-68
2022/07/14 01:14:32;;;;;;;13.82;4.38;;;;;;;15.59;88.66;102004.31;4896917;29;20043;-68
2022/07/14 01:16:58;;;;;;;10.40;3.83;;;;;;;15.51;88.92;101991.03;4896992;29;20040;-68
2022/07/14 01:19:24;;;;;;;13.10;3.67;;;;;;;15.51;89.28;102004.47;4897067;29;20115;-68
2022/07/14 01:21:56;;;;;;;9.00;3.78;;;;;;;15.50;89.37;102013.56;4896985;29;20036;-68
2022/07/14 01:24:23;;;;;;;6.22;3.50;;;;;;;15.55;89.82;102016.50;4896764;29;20130;-68
2022/07/14 01:26:49;;;;;;;9.68;3.40;;;;;;;15.57;89.58;102020.63;4896857;29;20681;-68
2022/07/14 01:29:15;;;;;;;9.43;3.08;;;;;;;15.56;89.99;102016.31;4896780;29;20048;-68
2022/07/14 01:31:41;;;;;;;12.60;3.63;;;;;;;15.53;89.54;102021.25;4896780;29;20392;-68
2022/07/14 01:34:06;;;;;;;7.25;3.42;;;;;;;15.53;89.26;102022.06;4896820;29;20123;-68
2022/07/14 01:36:32;;;;;;;11.55;3.50;;;;;;;15.48;89.52;102021.88;4896827;29;20480;-68
2022/07/14 01:38:57;;;;;;;10.05;3.22;;;;;;;15.47;89.62;102019.34;4880003;29;20087;-71
2022/07/14 01:41:23;;;;;;;10.82;4.15;;;;;;;15.50;89.81;102027.84;4896796;29;20037;-71
2022/07/14 01:43:49;;;;;;;11.07;3.75;;;;;;;15.48;90.07;102032.63;4896481;29;20438;-72
2022/07/14 01:46:14;;;;;;;12.57;3.60;;;;;;;15.45;90.58;102021.41;4896507;29;20039;-72
2022/07/14 01:48:39;;;;;;;9.82;3.70;;;;;;;15.55;89.92;102022.69;4896394;29;20079;-72
2022/07/14 01:51:05;;;;;;;12.90;5.10;;;;;;;15.55;89.71;102021.88;4879552;29;20025;-72
2022/07/14 01:53:30;;;;;;;12.05;3.58;;;;;;;15.54;90.11;102012.16;4896258;29;20508;-72
2022/07/14 01:55:57;;;;;;;10.63;4.00;;;;;;;15.56;89.89;102019.00;4896236;29;20070;-72
2022/07/14 01:58:22;;;;;;;11.93;5.07;;;;;;;15.60;89.59;102016.72;4896137;29;20048;-72
2022/07/14 02:01:39;;;;;;;9.75;3.47;;;;;;;15.68;89.42;102015.72;4895911;29;20032;-72
2022/07/14 02:03:33;;;;;;;15.68;3.83;;;;;;;15.60;89.42;101999.75;4895315;29;20377;-72
2022/07/14 02:06:00;;;;;;;10.23;4.45;;;;;;;15.52;90.21;102004.28;4895215;29;20060;-72
2022/07/14 02:08:26;;;;;;;11.27;3.50;;;;;;;15.49;90.16;102010.06;4879532;29;20029;-72
2022/07/14 02:13:35;;;;;;;13.25;4.10;;;;;;;15.42;90.68;101998.44;4895884;29;20043;-72
2022/07/14 02:16:00;;;;;;;7.97;3.17;;;;;;;15.43;90.66;101991.19;4895954;29;20437;-72
2022/07/14 02:18:26;;;;;;;18.73;4.97;;;;;;;15.39;90.61;101990.78;4896011;29;20048;-72
2022/07/14 02:20:51;;;;;;;11.25;3.90;;;;;;;15.43;90.88;101999.28;4895805;29;20049;-71
2022/07/14 02:23:17;;;;;;;13.80;4.22;;;;;;;15.32;90.93;101989.91;4895862;29;20072;-72
2022/07/14 02:25:42;;;;;;;13.05;4.20;;;;;;;15.34;90.85;101998.63;4895629;29;20399;-72
2022/07/14 02:28:07;;;;;;;13.20;3.72;;;;;;;15.28;90.89;102004.81;4895565;29;20052;-72
2022/07/14 02:30:33;;;;;;;13.68;4.93;;;;;;;15.30;91.16;101994.66;4895716;29;20025;-72
2022/07/14 02:32:58;;;;;;;8.38;3.65;;;;;;;15.28;90.90;101992.19;4895538;29;20037;-72
2022/07/14 02:35:23;;;;;;;11.55;4.60;;;;;;;15.24;90.32;102001.66;4895124;29;20032;-72
2022/07/14 02:37:49;;;;;;;9.02;3.78;;;;;;;15.26;90.87;102010.38;4895724;29;20036;-72
2022/07/14 02:40:15;;;;;;;17.35;3.65;;;;;;;15.25;90.87;102011.41;4895644;29;20083;-72
2022/07/14 02:42:41;;;;;;;9.38;3.40;;;;;;;15.26;90.96;102004.16;4895464;29;20586;-72
2022/07/14 02:45:07;;;;;;;11.07;4.82;;;;;;;15.24;90.95;101998.16;4895344;29;20040;-72
2022/07/14 02:47:33;;;;;;;8.15;3.38;;;;;;;15.24;90.63;101996.28;4895203;29;20116;-72
2022/07/14 02:49:58;;;;;;;11.15;3.28;;;;;;;15.19;90.42;102000.63;4894738;29;20123;-71
2022/07/14 02:52:23;;;;;;;11.85;4.68;;;;;;;15.13;90.70;101994.19;4894760;29;20029;-72
2022/07/14 02:54:49;;;;;;;14.02;4.43;;;;;;;15.06;90.11;101996.00;4878385;29;20463;-72
2022/07/14 02:57:14;;;;;;;9.70;3.80;;;;;;;15.03;90.81;101993.72;4895266;29;20044;-71
2022/07/14 02:59:41;;;;;;;11.48;4.20;;;;;;;14.97;91.07;101997.19;4878401;29;20081;-71
2022/07/14 03:02:07;;;;;;;8.68;3.72;;;;;;;14.93;91.32;101987.84;4895039;29;20186;-71
2022/07/14 03:04:33;;;;;;;10.48;4.65;;;;;;;14.93;91.48;101993.22;4894957;29;20048;-71
2022/07/14 03:06:58;;;;;;;10.90;4.45;;;;;;;14.82;91.50;101989.25;4877973;29;20036;-72
2022/07/14 03:09:25;;;;;;;14.48;3.55;;;;;;;14.58;92.00;101967.19;4894216;29;20048;-71
2022/07/14 03:11:51;;;;;;;10.77;4.15;;;;;;;14.53;92.39;101979.53;4894862;29;20021;-72
2022/07/14 03:14:16;;;;;;;11.98;4.18;;;;;;;14.45;92.27;101975.94;4894474;29;20034;-72
2022/07/14 03:16:41;;;;;;;18.65;4.28;;;;;;;14.38;93.03;101980.44;4894065;29;20028;-71
2022/07/14 03:19:07;;;;;;;12.05;4.03;;;;;;;14.33;93.40;101971.28;4894858;29;20096;-72
2022/07/14 03:21:32;;;;;;;10.32;3.65;;;;;;;14.31;93.53;101973.34;4896211;29;20084;-72
2022/07/14 03:23:57;;;;;;;12.30;4.72;;;;;;;14.22;93.74;101953.84;4894936;29;20040;-71
2022/07/14 03:26:23;;;;;;;9.77;3.58;;;;;;;14.27;93.91;101967.53;4894590;29;20080;-72
2022/07/14 03:28:48;;;;;;;15.73;4.28;;;;;;;14.24;93.61;101959.88;4877567;29;20471;-71
2022/07/14 03:31:13;;;;;;;17.02;5.35;;;;;;;14.25;93.70;101965.06;4861881;29;20116;-71
2022/07/14 03:33:39;;;;;;;10.75;3.75;;;;;;;14.21;93.85;101957.59;4894636;29;20036;-71
2022/07/14 03:36:05;;;;;;;12.95;4.35;;;;;;;14.18;93.92;101964.16;4894504;29;20033;-72
2022/07/14 03:38:30;;;;;;;10.60;3.90;;;;;;;14.10;94.03;101955.44;4894374;29;20209;-71
2022/07/14 03:40:56;;;;;;;16.95;5.55;;;;;;;14.08;94.15;101952.94;4894329;29;20370;-72
2022/07/14 03:43:21;;;;;;;17.65;5.28;;;;;;;14.09;94.50;101956.44;4894316;29;20044;-71
2022/07/14 03:45:47;;;;;;;11.85;5.32;;;;;;;14.08;94.38;101955.59;4894220;29;20212;-72
2022/07/14 03:48:12;;;;;;;14.27;4.40;;;;;;;14.02;94.31;101964.44;4893595;29;20052;-72
2022/07/14 03:50:38;;;;;;;10.95;3.97;;;;;;;13.90;94.88;101950.69;4894250;29;20048;-72
2022/07/14 03:53:04;;;;;;;12.18;3.58;;;;;;;14.00;94.99;101969.97;4894081;29;20111;-72
2022/07/14 03:55:31;;;;;;;9.63;4.10;;;;;;;14.04;94.79;101967.72;4877469;29;20028;-72
2022/07/14 03:57:56;;;;;;;8.55;4.07;;;;;;;14.05;94.95;101973.94;4894200;29;20096;-72
2022/07/14 04:00:22;;;;;;;12.15;4.22;;;;;;;14.05;94.93;101982.00;4893980;29;20072;-72
2022/07/14 04:02:47;;;;;;;13.13;5.30;;;;;;;14.00;94.93;101969.97;4893143;29;20040;-72
2022/07/14 04:05:12;;;;;;;12.15;3.60;;;;;;;13.93;95.27;101969.06;4893928;29;20045;-72
2022/07/14 04:07:39;;;;;;;9.35;3.63;;;;;;;13.92;95.22;101970.09;4894233;29;20060;-72
2022/07/14 04:10:05;;;;;;;16.58;5.20;;;;;;;13.92;95.40;101972.78;4894177;29;20103;-72
2022/07/14 04:12:30;;;;;;;11.88;4.18;;;;;;;13.93;95.54;101973.63;4894112;29;20043;-72
2022/07/14 04:14:55;;;;;;;11.88;4.35;;;;;;;13.95;94.16;101968.91;4894201;29;20489;-72
2022/07/14 04:17:21;;;;;;;11.02;3.80;;;;;;;13.96;93.64;101976.75;4893678;29;20099;-71
2022/07/14 04:19:46;;;;;;;11.85;3.65;;;;;;;13.99;93.86;101964.78;4893649;29;20437;-72
2022/07/14 04:22:12;;;;;;;10.98;3.97;;;;;;;14.08;94.36;101960.97;4893752;29;20123;-71
2022/07/14 04:24:37;;;;;;;13.20;4.20;;;;;;;14.26;93.52;101965.88;4893888;29;20036;-71
2022/07/14 04:27:03;;;;;;;11.95;4.55;;;;;;;14.36;93.04;101969.06;4894053;29;20047;-71
2022/07/14 04:29:28;;;;;;;19.65;5.07;;;;;;;14.33;92.70;101957.88;4893730;29;20044;-71
2022/07/14 04:31:54;;;;;;;11.27;3.70;;;;;;;14.46;92.19;101966.88;4893980;29;20069;-71
2022/07/14 04:34:19;;;;;;;19.05;6.25;;;;;;;14.44;92.19;101968.91;4893896;29;20495;-71
2022/07/14 04:36:44;;;;;;;9.57;4.03;;;;;;;14.50;92.62;101979.91;4893963;29;20954;-71
2022/07/14 04:39:10;;;;;;;16.65;4.47;;;;;;;14.41;92.54;101963.13;4893770;29;20040;-68
2022/07/14 04:41:36;;;;;;;16.40;4.97;;;;;;;14.55;92.45;101967.59;4893779;29;20029;-68
2022/07/14 04:44:02;;;;;;;13.48;4.28;;;;;;;14.61;92.37;101969.47;4893787;29;20111;-68
2022/07/14 04:46:27;;;;;;;9.95;4.15;;;;;;;14.64;93.20;101962.88;4893624;29;20143;-68
2022/07/14 04:52:02;;;;;;;15.13;4.18;;;;;;;14.69;92.61;101971.19;4878692;29;20040;-68
2022/07/14 04:54:30;;;;;;;15.50;4.65;;;;;;;14.69;92.40;101969.31;4893778;29;20108;-68
2022/07/14 04:56:55;;;;;;;14.30;5.20;;;;;;;14.73;92.66;101966.25;4893462;29;20033;-68
2022/07/14 04:59:20;;;;;;;14.70;5.10;;;;;;;14.83;92.57;101978.31;4896019;29;20036;-68
2022/07/14 05:01:46;;;;;;;16.95;5.82;;;;;;;14.88;92.21;101983.94;4897093;29;20052;-68
2022/07/14 05:04:11;;;;;;;12.63;4.43;;;;;;;14.88;92.61;101972.31;4879464;29;20485;-68
2022/07/14 05:06:36;;;;;;;8.82;4.38;;;;;;;14.96;91.87;101988.31;4896693;29;20044;-68
2022/07/14 05:09:02;;;;;;;10.20;4.50;;;;;;;14.99;91.16;101985.22;4896925;29;20024;-69
2022/07/14 05:11:28;;;;;;;11.50;4.25;;;;;;;14.99;91.17;101987.91;4896997;29;20024;-68
2022/07/14 05:13:54;;;;;;;13.50;5.68;;;;;;;15.04;90.66;101984.63;4897060;29;20028;-68
2022/07/14 05:16:19;;;;;;;11.20;4.47;;;;;;;15.18;90.61;101989.03;4896977;29;20037;-68
2022/07/14 05:18:44;;;;;;;16.55;4.85;;;;;;;15.24;90.12;101992.78;4896448;29;20656;-68
2022/07/14 05:21:10;;;;;;;13.65;4.15;;;;;;;15.26;89.65;101991.56;4896392;29;20044;-68
2022/07/14 05:23:36;;;;;;;16.52;4.53;;;;;;;15.37;89.76;101995.53;4879934;29;20135;-68
2022/07/14 05:26:02;;;;;;;10.43;4.95;;;;;;;15.49;88.93;101988.56;4896599;29;20040;-68
2022/07/14 05:28:27;;;;;;;13.75;4.13;;;;;;;15.56;87.95;101994.78;4896733;29;20032;-68
2022/07/14 05:31:00;;;;;;;9.45;4.63;;;;;;;15.59;87.93;101984.63;4896643;29;20032;-68
2022/07/14 05:33:25;;;;;;;13.93;5.43;;;;;;;15.57;87.97;101983.00;4895970;29;20088;-68
2022/07/14 05:35:50;;;;;;;14.02;4.75;;;;;;;15.66;88.45;101989.00;4896793;29;20123;-68
2022/07/14 05:38:16;;;;;;;14.75;4.75;;;;;;;15.75;87.59;101993.22;4896537;29;20168;-68
2022/07/14 05:40:41;;;;;;;10.90;5.10;;;;;;;15.84;87.30;101999.22;4896419;29;20075;-68
2022/07/14 05:43:06;;;;;;;13.23;5.13;;;;;;;15.89;86.95;102001.31;4896460;29;20066;-68
2022/07/14 05:45:32;;;;;;;10.70;4.93;;;;;;;15.87;86.91;101993.44;4896342;29;20097;-68
2022/07/14 05:47:58;;;;;;;15.95;5.07;;;;;;;15.95;86.97;101995.13;4896205;29;20036;-68
2022/07/14 05:50:23;;;;;;;14.82;5.53;;;;;;;15.97;85.98;101998.44;4895012;29;20556;-68
2022/07/14 05:52:48;;;;;;;21.27;5.95;;;;;;;15.96;87.06;102002.16;4896609;29;20038;-68
2022/07/14 05:55:14;;;;;;;10.50;4.32;;;;;;;15.93;86.39;101995.34;4896297;29;20024;-67
2022/07/14 05:57:39;;;;;;;19.23;4.82;;;;;;;15.96;87.16;102000.31;4896112;29;20044;-68
2022/07/14 06:00:06;;;;;;;14.93;5.28;;;;;;;15.96;86.29;101997.63;4896015;29;20083;-68
2022/07/14 06:02:31;;;;;;;18.10;4.60;;;;;;;16.00;85.39;101995.34;4879383;29;20043;-68
2022/07/14 06:04:56;;;;;;;12.02;4.72;;;;;;;16.08;85.99;101992.44;4895808;29;20056;-68
2022/07/14 06:07:22;;;;;;;11.85;3.92;;;;;;;16.25;86.07;101997.44;4896010;29;20048;-67
2022/07/14 06:09:49;;;;;;;11.10;3.90;;;;;;;16.38;84.79;101992.06;4895071;29;20043;-68
2022/07/14 06:12:15;;;;;;;13.38;5.70;;;;;;;16.42;84.88;101994.13;4896174;29;20059;-68
2022/07/14 06:14:42;;;;;;;12.25;5.03;;;;;;;16.51;83.84;101994.75;4896003;29;20136;-68
2022/07/14 06:17:07;;;;;;;13.68;5.97;;;;;;;16.65;83.77;101996.38;4895896;29;20485;-68
2022/07/14 06:19:33;;;;;;;20.40;6.47;;;;;;;16.65;82.92;101992.88;4879152;29;20115;-68
2022/07/14 06:21:58;;;;;;;14.80;5.63;;;;;;;16.68;83.85;101978.16;4894645;29;20080;-67
2022/07/14 06:24:23;;;;;;;15.45;5.03;;;;;;;16.67;81.85;101971.94;4895625;29;20123;-68
2022/07/14 06:26:49;;;;;;;10.88;4.45;;;;;;;16.68;81.37;101972.78;4895397;29;20405;-67
2022/07/14 06:29:14;;;;;;;13.73;5.28;;;;;;;16.70;81.70;101978.78;4895517;29;20115;-68
2022/07/14 06:31:39;;;;;;;12.75;4.53;;;;;;;16.78;82.15;101983.97;4895529;29;20043;-69
2022/07/14 06:34:05;;;;;;;15.73;5.97;;;;;;;16.77;81.38;101982.31;4895469;29;20032;-68
2022/07/14 06:36:31;;;;;;;12.50;5.18;;;;;;;16.78;81.99;101978.59;4895380;29;20029;-68
2022/07/14 06:38:58;;;;;;;13.02;5.47;;;;;;;16.76;80.69;101986.00;4895612;29;20037;-68
2022/07/14 06:41:24;;;;;;;10.70;4.78;;;;;;;16.71;79.47;101997.41;4895545;29;20041;-68
2022/07/14 06:43:49;;;;;;;15.57;5.47;;;;;;;16.67;81.03;101992.69;4878399;29;20122;-68
2022/07/14 06:46:15;;;;;;;15.05;4.78;;;;;;;16.72;81.41;102000.97;4895250;29;20488;-68
2022/07/14 06:48:41;;;;;;;14.50;5.38;;;;;;;16.74;80.48;101997.03;4895364;29;20464;-67
2022/07/14 06:51:06;;;;;;;13.38;4.88;;;;;;;16.71;79.97;101992.03;4895337;29;20108;-67
2022/07/14 06:53:33;;;;;;;13.25;4.68;;;;;;;16.62;80.01;101988.72;4893921;29;20016;-69
2022/07/14 06:55:58;;;;;;;8.65;4.13;;;;;;;16.69;80.14;101988.75;4874512;29;20037;-66
2022/07/14 06:58:23;;;;;;;12.18;4.68;;;;;;;16.75;78.84;102000.53;4890990;29;20073;-67
2022/07/14 07:00:49;;;;;;;13.50;3.88;;;;;;;16.72;78.52;101998.25;4891323;29;20037;-67
2022/07/14 07:03:14;;;;;;;12.07;5.25;;;;;;;16.67;77.87;101988.09;4891343;29;20088;-67
2022/07/14 07:08:25;;;;;;;10.02;3.88;;;;;;;16.76;79.34;101983.31;4891004;29;20035;-67
2022/07/14 07:10:51;;;;;;;14.68;4.60;;;;;;;16.83;80.95;101976.91;4891099;29;20103;-67
2022/07/14 07:13:16;;;;;;;11.25;5.07;;;;;;;16.93;77.92;101978.34;4890927;29;20044;-67
2022/07/14 07:15:41;;;;;;;17.15;5.85;;;;;;;16.89;76.85;101980.63;4890798;29;20107;-69
2022/07/14 07:18:07;;;;;;;10.15;4.18;;;;;;;16.93;77.84;101981.88;4890897;29;20138;-68
2022/07/14 07:20:36;;;;;;;7.80;3.47;;;;;;;17.02;77.28;101982.47;4890172;29;20047;-68
2022/07/14 07:23:03;;;;;;;9.63;5.20;;;;;;;17.15;78.66;101984.28;4891929;29;20067;-67
2022/07/14 07:25:28;;;;;;;9.23;4.75;;;;;;;17.19;77.27;101986.38;4894540;29;20029;-71
2022/07/14 07:27:54;;;;;;;14.20;4.82;;;;;;;17.20;77.03;101977.22;4894370;29;20130;-74
2022/07/14 07:30:19;;;;;;;12.05;4.35;;;;;;;17.24;74.82;101989.25;4894675;29;20027;-71
2022/07/14 07:32:46;;;;;;;9.73;3.05;;;;;;;17.25;74.42;101987.38;4894420;29;20373;-71
2022/07/14 07:35:11;;;;;;;10.70;3.78;;;;;;;17.33;74.84;101981.75;4894551;29;20040;-71
2022/07/14 07:37:37;;;;;;;9.52;3.70;;;;;;;17.38;74.46;101983.81;4894417;29;20039;-72
2022/07/14 07:40:03;;;;;;;8.20;3.97;;;;;;;17.38;73.42;101984.63;4894496;29;20040;-67
2022/07/14 07:42:29;;;;;;;6.25;3.55;;;;;;;17.35;73.93;101973.44;4894223;29;20092;-66
2022/07/14 07:44:55;;;;;;;10.30;4.13;;;;;;;17.37;74.07;101965.94;4891616;29;20111;-67
2022/07/14 07:47:22;;;;;;;13.43;5.00;;;;;;;17.38;74.18;101973.00;4879390;29;20481;-70
2022/07/14 07:49:47;;;;;;;10.38;4.57;;;;;;;17.43;72.74;101957.00;4890595;29;20493;-69
2022/07/14 07:52:12;;;;;;;8.93;4.22;;;;;;;17.46;73.20;101959.28;4890433;29;20071;-68
2022/07/14 07:54:38;;;;;;;9.02;4.20;;;;;;;17.50;74.22;101955.94;4890500;29;20037;-69
2022/07/14 07:57:03;;;;;;;11.02;4.22;;;;;;;17.61;73.03;101957.13;4892972;29;20087;-68
2022/07/14 07:59:28;;;;;;;12.23;3.88;;;;;;;17.67;73.69;101950.84;4894097;29;20064;-68
2022/07/14 08:01:54;;;;;;;8.50;3.03;;;;;;;17.78;72.46;101954.72;4893995;29;20373;-68
2022/07/14 08:04:19;;;;;;;8.18;3.78;;;;;;;17.80;70.76;101954.56;4894073;29;20068;-68
2022/07/14 08:06:45;;;;;;;10.30;4.50;;;;;;;17.87;70.51;101945.38;4894224;29;20508;-68
2022/07/14 08:09:13;;;;;;;13.45;3.55;;;;;;;17.94;69.67;101954.22;4894148;29;20063;-68
2022/07/14 08:11:42;;;;;;;12.02;3.65;;;;;;;17.96;71.26;101941.34;4894127;29;20028;-68
2022/07/14 08:14:47;;;;;;;25.08;5.32;;;;;;;18.08;70.57;101932.56;4893901;29;20219;-68
2022/07/14 08:16:56;;;;;;;8.82;2.85;;;;;;;18.42;67.06;101944.72;4894328;29;20055;-68
2022/07/14 08:19:22;;;;;;;10.63;3.53;;;;;;;19.96;63.90;101946.38;4894517;29;20033;-68
2022/07/14 08:21:47;;;;;;;10.02;3.60;;;;;;;22.40;56.96;101933.44;4894031;29;20511;-68
2022/07/14 08:24:13;;;;;;;8.05;3.38;;;;;;;24.26;51.64;101940.66;4861656;29;20476;-68
2022/07/14 08:26:40;;;;;;;8.07;2.80;;;;;;;25.38;46.29;101942.31;4893387;29;20063;-68
2022/07/14 08:29:06;;;;;;;10.00;4.63;;;;;;;26.37;45.33;101929.25;4894052;29;20032;-68
2022/07/14 08:31:31;;;;;;;8.88;2.50;;;;;;;27.05;42.86;101929.56;4893794;29;20045;-69
2022/07/14 08:33:56;;;;;;;9.45;2.97;;;;;;;27.61;40.97;101922.13;4896020;29;20068;-68
2022/07/14 08:36:22;;;;;;;11.82;2.78;;;;;;;28.39;39.81;101921.16;4897760;29;20358;-69
2022/07/14 08:38:47;;;;;;;11.98;2.70;;;;;;;29.50;38.01;101920.03;4880878;29;20173;-69
2022/07/14 08:41:14;;;;;;;7.38;2.60;;;;;;;29.75;36.62;101913.34;4897599;29;20064;-69
2022/07/14 08:43:40;;;;;;;9.70;2.95;;;;;;;29.84;36.34;101913.47;4880845;29;20036;-68
2022/07/14 08:46:05;;;;;;;9.52;3.90;;;;;;;30.13;36.02;101916.00;4897669;29;20072;-68
2022/07/14 08:48:32;;;;;;;12.88;4.55;;;;;;;29.99;35.59;101913.19;4897671;29;20028;-69
2022/07/14 08:50:58;;;;;;;12.75;3.00;;;;;;;29.85;35.67;101904.91;4897438;29;20437;-69
2022/07/14 08:53:26;;;;;;;4.10;1.90;;;;;;;29.85;34.53;101902.16;4897408;29;20028;-68
2022/07/14 08:55:51;;;;;;;8.77;2.55;;;;;;;29.63;34.76;101902.78;4897235;29;20032;-69
2022/07/14 08:58:16;;;;;;;6.47;2.60;;;;;;;29.73;35.30;101909.25;4896986;29;20440;-68
2022/07/14 09:00:42;;;;;;;13.93;2.50;;;;;;;30.11;33.94;101907.22;4897009;29;20432;-69
2022/07/14 09:03:07;;;;;;;9.15;2.53;;;;;;;30.24;34.21;101913.88;4897176;29;20088;-68
2022/07/14 09:05:33;;;;;;;7.45;1.90;;;;;;;29.97;33.00;101903.59;4897185;29;20409;-68
2022/07/14 09:07:58;;;;;;;7.53;2.08;;;;;;;28.93;35.04;101908.22;4897009;29;20063;-69
2022/07/14 09:10:28;;;;;;;11.15;2.25;;;;;;;27.21;37.07;101908.44;4897107;29;20044;-69
2022/07/14 09:13:14;;;;;;;7.45;2.22;;;;;;;25.87;41.79;101911.81;4897063;29;20103;-69
2022/07/14 09:15:46;;;;;;;6.40;1.92;;;;;;;24.53;42.86;101907.88;4897070;29;20080;-69
2022/07/14 09:18:23;;;;;;;5.80;1.90;;;;;;;23.78;46.30;101905.13;4896964;29;20032;-69
2022/07/14 09:20:49;;;;;;;7.85;2.67;;;;;;;23.27;44.40;101904.63;4896767;29;20127;-69
2022/07/14 09:23:14;;;;;;;8.70;1.85;;;;;;;22.92;47.55;101905.84;4896779;29;20119;-69
2022/07/14 09:25:40;;;;;;;9.32;2.97;;;;;;;22.78;48.98;101901.03;4896785;29;20043;-68
2022/07/14 09:28:08;;;;;;;8.20;2.00;;;;;;;22.68;49.92;101897.09;4896525;29;20044;-69
2022/07/14 09:30:34;;;;;;;6.15;1.80;;;;;;;22.72;50.48;101897.44;4896678;29;20087;-69
2022/07/14 09:33:05;;;;;;;3.47;2.40;;;;;;;22.65;50.76;101894.88;4896913;29;20451;-69
2022/07/14 09:35:34;;;;;;;5.78;2.53;;;;;;;22.65;51.20;101891.34;4896299;29;20486;-69
2022/07/14 09:38:01;;;;;;;7.10;2.88;;;;;;;22.66;52.63;101896.53;4896726;29;20496;-69
2022/07/14 09:40:30;;;;;;;4.03;2.30;;;;;;;22.63;51.75;101890.78;4896741;29;20037;-68
2022/07/14 09:43:04;;;;;;;4.35;1.80;;;;;;;22.26;47.69;101899.50;4896720;29;20035;-69
2022/07/14 09:45:32;;;;;;;3.75;1.52;;;;;;;22.02;47.44;101896.94;4895339;29;20388;-69
2022/07/14 09:48:06;;;;;;;8.98;2.70;;;;;;;21.84;48.03;101875.47;4896723;29;20039;-68
2022/07/14 09:50:37;;;;;;;6.22;1.80;;;;;;;21.86;49.28;101895.06;4896459;29;20058;-68
2022/07/14 09:53:28;;;;;;;5.00;2.13;;;;;;;21.93;49.50;101892.16;4896236;29;20145;-69
2022/07/14 09:55:56;;;;;;;5.10;1.57;;;;;;;21.97;47.94;101891.44;4896322;29;20039;-68
2022/07/14 09:58:31;;;;;;;10.02;2.45;;;;;;;21.96;50.21;101891.69;4896123;29;20473;-69
2022/07/14 10:01:06;;;;;;;8.30;2.83;;;;;;;22.05;48.54;101890.19;4895942;29;20157;-69
2022/07/14 10:03:33;;;;;;;5.55;1.60;;;;;;;22.18;49.61;101898.00;4896268;29;20060;-68
2022/07/14 10:06:02;;;;;;;3.95;1.95;;;;;;;22.39;49.06;101892.91;4896005;29;20744;-68
2022/07/14 10:08:34;;;;;;;5.88;1.90;;;;;;;22.35;48.41;101892.59;4896158;29;20033;-69
2022/07/14 10:11:00;;;;;;;7.40;2.25;;;;;;;22.42;49.27;101895.94;4896127;29;20139;-69
2022/07/14 10:13:27;;;;;;;6.13;1.92;;;;;;;22.49;48.01;101899.28;4895986;29;20040;-69
2022/07/14 10:15:54;;;;;;;6.97;1.77;;;;;;;22.43;50.62;101897.59;4896073;29;20032;-69
2022/07/14 10:18:21;;;;;;;5.35;2.30;;;;;;;22.33;47.26;101910.22;4896077;29;20043;-69
2022/07/14 10:20:49;;;;;;;4.72;2.28;;;;;;;22.29;48.69;101910.69;4878517;29;20068;-69
2022/07/14 10:23:17;;;;;;;5.38;1.92;;;;;;;22.25;50.50;101904.13;4895790;29;20147;-69
2022/07/14 10:25:46;;;;;;;5.38;2.03;;;;;;;22.30;50.33;101900.66;4895818;29;20429;-69
2022/07/14 10:28:11;;;;;;;7.22;1.98;;;;;;;22.60;49.57;101905.69;4895743;29;20029;-70
2022/07/14 10:30:41;;;;;;;6.18;1.75;;;;;;;22.79;51.23;101897.22;4895148;29;20036;-69
2022/07/14 10:33:17;;;;;;;6.60;2.30;;;;;;;23.10;48.93;101893.81;4895593;29;20547;-69
2022/07/14 10:36:00;;;;;;;4.60;1.58;;;;;;;23.46;46.82;101902.38;4895546;29;20556;-69
2022/07/14 10:38:52;;;;;;;4.70;2.08;;;;;;;23.66;45.43;101896.28;4895556;29;20076;-69
2022/07/14 10:41:27;;;;;;;6.20;2.10;;;;;;;23.98;44.17;101900.94;4895299;29;20024;-68
2022/07/14 10:44:09;;;;;;;3.38;1.67;;;;;;;24.06;43.56;101906.72;4895438;29;20032;-69
2022/07/14 10:46:40;;;;;;;5.57;1.75;;;;;;;24.13;43.07;101894.75;4896368;29;20436;-69
2022/07/14 10:49:07;;;;;;;3.60;1.42;;;;;;;24.04;43.05;101906.16;4895422;29;20084;-68
2022/07/14 10:51:42;;;;;;;4.40;2.20;;;;;;;23.73;42.11;101891.47;4890566;29;20681;-69
2022/07/14 10:54:14;;;;;;;4.25;1.60;;;;;;;23.50;45.37;101887.16;4891253;29;20032;-68
2022/07/14 10:56:42;;;;;;;6.82;2.03;;;;;;;23.46;42.78;101894.19;4891059;29;20433;-69
2022/07/14 10:59:26;;;;;;;7.03;1.80;;;;;;;23.17;44.11;101905.34;4891193;29;20146;-68
2022/07/14 11:02:10;;;;;;;5.22;1.67;;;;;;;23.03;44.18;101895.94;4894031;29;20041;-69
2022/07/14 11:05:00;;;;;;;4.20;1.85;;;;;;;23.32;44.64;101885.63;4894867;29;20104;-73
2022/07/14 11:08:07;;;;;;;2.08;1.60;;;;;;;23.51;43.46;101883.34;4894668;29;20066;-72
2022/07/14 11:10:32;;;;;;;3.88;2.10;;;;;;;23.64;43.01;101898.44;4894897;29;20134;-72
2022/07/14 11:13:03;;;;;;;3.53;1.63;;;;;;;23.58;42.85;101897.59;4894838;29;20097;-72
2022/07/14 11:15:39;;;;;;;9.30;1.88;;;;;;;23.58;44.49;101892.13;4877964;29;20811;-72
2022/07/14 11:18:28;;;;;;;7.53;1.92;;;;;;;23.48;45.63;101891.22;4894676;29;20025;-72
2022/07/14 11:21:07;;;;;;;8.40;2.00;;;;;;;23.48;44.54;101891.22;4894755;29;20107;-72
2022/07/14 11:23:34;;;;;;;4.82;2.55;;;;;;;23.65;41.53;101896.53;4894723;29;20036;-71
2022/07/14 11:26:07;;;;;;;3.33;1.92;;;;;;;23.58;40.87;101894.88;4894893;29;20028;-72
2022/07/14 11:28:48;;;;;;;5.32;1.60;;;;;;;23.48;42.56;101900.22;4894809;29;20048;-72